createdAt,value
2019-03-13T00:00:57.048Z,88.85
2019-03-13T00:04:02.220Z,88.85
2019-03-13T00:07:07.321Z,88.60
2019-03-13T00:10:12.794Z,89.73
2019-03-13T00:13:17.927Z,87.76
2019-03-13T00:16:23.129Z,87.70
2019-03-13T00:19:28.188Z,85.29
2019-03-13T00:22:33.350Z,84.34
2019-03-13T00:25:38.472Z,80.14
2019-03-13T00:28:43.800Z,76.79
2019-03-13T00:31:48.966Z,75.58
2019-03-13T00:34:54.162Z,77.52
2019-03-13T00:37:59.327Z,75.57
2019-03-13T00:41:04.493Z,75.20
2019-03-13T00:44:09.682Z,76.53
2019-03-13T00:47:14.834Z,76.46
2019-03-13T00:50:30.752Z,76.86
2019-03-13T00:53:35.920Z,81.90
2019-03-13T00:56:41.053Z,82.60
2019-03-13T00:59:46.150Z,84.79
2019-03-13T01:02:51.275Z,84.88
2019-03-13T01:06:01.225Z,85.00
2019-03-13T01:09:07.804Z,84.76
2019-03-13T01:12:13.107Z,85.35
2019-03-13T01:15:18.213Z,86.01
2019-03-13T01:18:23.310Z,86.42
2019-03-13T01:21:28.419Z,87.34
2019-03-13T01:24:34.632Z,85.76
2019-03-13T01:27:40.840Z,85.27
2019-03-13T01:31:00.867Z,84.69
2019-03-13T01:34:23.571Z,85.12
2019-03-13T01:37:28.671Z,85.74
2019-03-13T01:40:33.959Z,83.98
2019-03-13T01:43:39.124Z,83.09
2019-03-13T01:46:44.250Z,80.63
2019-03-13T01:49:49.368Z,80.62
2019-03-13T01:52:54.457Z,80.79
2019-03-13T01:55:59.595Z,80.29
2019-03-13T01:59:04.761Z,79.39
2019-03-13T02:02:09.908Z,78.70
2019-03-13T02:05:15.571Z,78.32
2019-03-13T02:08:21.684Z,80.80
2019-03-13T02:11:26.801Z,79.61
2019-03-13T02:14:31.952Z,77.38
2019-03-13T02:17:37.134Z,76.80
2019-03-13T02:20:42.277Z,78.04
2019-03-13T02:23:47.441Z,78.08
2019-03-13T02:26:52.587Z,77.92
2019-03-13T02:29:57.763Z,77.17
2019-03-13T02:33:02.963Z,75.64
2019-03-13T02:36:08.101Z,77.33
2019-03-13T02:39:13.217Z,76.79
2019-03-13T02:42:18.441Z,78.13
2019-03-13T02:45:23.668Z,78.32
2019-03-13T02:48:28.742Z,76.91
2019-03-13T02:51:33.898Z,78.22
2019-03-13T02:54:39.072Z,79.40
2019-03-13T02:57:44.226Z,78.52
2019-03-13T03:01:10.342Z,77.73
2019-03-13T03:04:15.548Z,78.21
2019-03-13T03:07:20.695Z,77.23
2019-03-13T03:10:25.738Z,76.80
2019-03-13T03:13:30.829Z,78.24
2019-03-13T03:16:35.965Z,78.26
2019-03-13T03:19:42.109Z,77.89
2019-03-13T03:22:47.397Z,76.55
2019-03-13T03:25:52.570Z,75.89
2019-03-13T03:28:57.678Z,76.30
2019-03-13T03:32:02.869Z,73.62
2019-03-13T03:35:08.002Z,74.02
2019-03-13T03:38:13.123Z,75.31
2019-03-13T03:41:18.272Z,75.45
2019-03-13T03:44:23.383Z,74.30
2019-03-13T03:47:28.590Z,73.87
2019-03-13T03:50:33.738Z,73.67
2019-03-13T03:53:38.874Z,73.26
2019-03-13T03:56:43.942Z,74.17
2019-03-13T03:59:49.280Z,73.93
2019-03-13T04:02:54.331Z,74.19
2019-03-13T04:05:59.541Z,73.51
2019-03-13T04:09:05.928Z,72.91
2019-03-13T04:12:11.373Z,73.00
2019-03-13T04:15:16.713Z,72.15
2019-03-13T04:18:21.825Z,72.93
2019-03-13T04:21:26.929Z,71.98
2019-03-13T04:24:32.043Z,72.23
2019-03-13T04:27:37.134Z,71.78
2019-03-13T04:30:42.270Z,71.53
2019-03-13T04:33:47.389Z,70.80
2019-03-13T04:36:52.565Z,72.43
2019-03-13T04:39:57.700Z,72.87
2019-03-13T04:43:02.851Z,72.94
2019-03-13T04:46:07.945Z,71.92
2019-03-13T04:49:13.063Z,72.47
2019-03-13T04:52:18.331Z,72.46
2019-03-13T04:55:23.478Z,74.01
2019-03-13T04:58:28.604Z,74.04
2019-03-13T05:01:33.749Z,73.55
2019-03-13T05:04:38.839Z,73.69
2019-03-13T05:07:43.935Z,75.18
2019-03-13T05:10:48.991Z,75.14
2019-03-13T05:13:54.126Z,75.81
2019-03-13T05:16:59.263Z,75.43
2019-03-13T05:20:04.384Z,75.71
2019-03-13T05:23:09.475Z,75.69
2019-03-13T05:26:14.616Z,75.21
2019-03-13T05:29:19.785Z,75.84
2019-03-13T05:32:24.863Z,75.87
2019-03-13T05:35:29.968Z,75.64
2019-03-13T05:38:35.040Z,74.66
2019-03-13T05:41:40.255Z,75.00
2019-03-13T05:44:45.466Z,74.87
2019-03-13T05:47:50.657Z,73.59
2019-03-13T05:50:55.796Z,74.74
2019-03-13T05:54:00.971Z,73.96
2019-03-13T05:57:06.134Z,73.59
2019-03-13T06:00:12.265Z,72.07
2019-03-13T06:03:17.518Z,72.23
2019-03-13T06:06:22.748Z,72.24
2019-03-13T06:09:27.924Z,71.67
2019-03-13T06:12:33.080Z,70.61
2019-03-13T06:15:38.218Z,71.56
2019-03-13T06:18:45.451Z,71.79
2019-03-13T06:21:50.230Z,69.88
2019-03-13T06:24:55.533Z,70.33
2019-03-13T06:28:00.756Z,69.80
2019-03-13T06:31:05.930Z,69.42
2019-03-13T06:34:11.623Z,68.78
2019-03-13T06:37:16.801Z,68.77
2019-03-13T06:40:21.981Z,68.38
2019-03-13T06:43:27.042Z,69.13
2019-03-13T06:46:32.132Z,68.16
2019-03-13T06:49:37.262Z,69.07
2019-03-13T06:52:42.541Z,68.77
2019-03-13T06:55:49.324Z,67.81
2019-03-13T06:59:02.708Z,66.78
2019-03-13T07:02:30.099Z,66.12
2019-03-13T07:06:03.002Z,66.65
2019-03-13T07:09:39.701Z,66.33
2019-03-13T07:13:03.184Z,66.91
2019-03-13T07:16:36.332Z,67.98
2019-03-13T07:19:59.290Z,68.93
2019-03-13T07:23:32.467Z,70.89
2019-03-13T07:26:42.893Z,72.16
2019-03-13T07:29:56.732Z,73.08
2019-03-13T07:33:11.907Z,73.27
2019-03-13T07:36:51.263Z,76.54
2019-03-13T07:40:14.890Z,78.92
2019-03-13T07:43:37.649Z,78.80
2019-03-13T07:46:51.555Z,77.96
2019-03-13T07:50:06.173Z,79.20
2019-03-13T07:53:29.270Z,79.30
2019-03-13T07:56:59.676Z,81.61
2019-03-13T08:00:14.878Z,81.52
2019-03-13T08:03:34.626Z,81.01
2019-03-13T08:07:01.475Z,79.87
2019-03-13T08:10:29.598Z,79.10
2019-03-13T08:13:56.477Z,75.81
2019-03-13T08:17:26.662Z,74.96
2019-03-13T08:20:49.532Z,70.92
2019-03-13T08:24:13.151Z,70.63
2019-03-13T08:27:36.022Z,66.61
2019-03-13T08:31:05.977Z,64.85
2019-03-13T08:34:23.466Z,63.87
2019-03-13T08:37:47.536Z,62.62
2019-03-13T08:41:23.810Z,60.72
2019-03-13T08:44:45.514Z,58.13
2019-03-13T08:48:00.758Z,57.12
2019-03-13T08:51:25.794Z,55.80
2019-03-13T08:54:40.394Z,54.50
2019-03-13T08:57:54.001Z,55.54
2019-03-13T09:01:24.268Z,53.09
2019-03-13T09:04:48.374Z,52.41
2019-03-13T09:08:15.553Z,52.22
2019-03-13T09:11:36.883Z,52.30
2019-03-13T09:15:00.035Z,51.73
2019-03-13T09:18:14.598Z,49.62
2019-03-13T09:21:44.755Z,50.54
2019-03-13T09:25:12.416Z,50.89
2019-03-13T09:28:29.525Z,51.34
2019-03-13T09:31:52.757Z,53.21
2019-03-13T09:35:20.599Z,52.24
2019-03-13T09:38:50.915Z,52.06
2019-03-13T09:42:15.585Z,52.06
2019-03-13T09:45:34.547Z,54.26
2019-03-13T09:49:03.620Z,52.58
2019-03-13T09:52:17.772Z,53.77
2019-03-13T09:55:41.881Z,54.20
2019-03-13T09:59:04.662Z,55.19
2019-03-13T10:02:27.432Z,53.18
2019-03-13T10:05:57.346Z,52.40
2019-03-13T10:09:13.345Z,52.43
2019-03-13T10:12:46.412Z,53.45
2019-03-13T10:16:19.641Z,52.29
2019-03-13T10:19:49.567Z,54.32
2019-03-13T10:23:08.067Z,54.68
2019-03-13T10:26:41.543Z,54.91
2019-03-13T10:29:58.779Z,54.22
2019-03-13T10:33:26.403Z,51.27
2019-03-13T10:36:53.185Z,52.11
2019-03-13T10:40:35.802Z,52.53
2019-03-13T10:43:57.161Z,54.38
2019-03-13T10:47:21.324Z,54.23
2019-03-13T10:50:54.751Z,55.66
2019-03-13T10:54:18.890Z,57.15
2019-03-13T10:57:42.869Z,61.49
2019-03-13T11:01:19.420Z,64.80
2019-03-13T11:04:42.138Z,63.19
2019-03-13T11:08:05.048Z,63.23
2019-03-13T11:11:29.170Z,61.04
2019-03-13T11:14:56.224Z,57.95
2019-03-13T11:18:17.934Z,60.13
2019-03-13T11:21:43.910Z,57.64
2019-03-13T11:25:11.052Z,58.42
2019-03-13T11:28:28.290Z,58.60
2019-03-13T11:31:50.631Z,58.10
2019-03-13T11:35:20.632Z,58.46
2019-03-13T11:39:00.321Z,56.41
2019-03-13T11:42:21.995Z,53.70
2019-03-13T11:45:45.156Z,52.97
2019-03-13T11:49:21.324Z,53.17
2019-03-13T11:52:36.226Z,52.30
2019-03-13T11:56:03.171Z,51.47
2019-03-13T11:59:25.910Z,49.07
2019-03-13T12:02:58.716Z,48.98
2019-03-13T12:06:25.908Z,50.52
2019-03-13T12:09:48.861Z,49.92
2019-03-13T12:13:04.141Z,50.84
2019-03-13T12:16:31.570Z,50.10
2019-03-13T12:20:01.801Z,50.02
2019-03-13T12:23:41.531Z,50.13
2019-03-13T12:27:03.656Z,50.13
2019-03-13T12:30:29.995Z,49.91
2019-03-13T12:33:46.953Z,49.25
2019-03-13T12:36:59.257Z,50.02
2019-03-13T12:40:19.891Z,49.54
2019-03-13T12:43:42.685Z,50.01
2019-03-13T12:47:09.904Z,50.74
2019-03-13T12:50:24.340Z,50.04
2019-03-13T12:53:55.271Z,51.49
2019-03-13T12:57:31.454Z,50.71
2019-03-13T13:00:44.534Z,52.50
2019-03-13T13:04:11.915Z,52.34
2019-03-13T13:07:36.003Z,51.49
2019-03-13T13:10:59.097Z,51.52
2019-03-13T13:14:23.198Z,51.49
2019-03-13T13:17:59.671Z,51.03
2019-03-13T13:21:04.776Z,52.88
2019-03-13T13:24:10.107Z,52.72
2019-03-13T13:27:15.242Z,52.78
2019-03-13T13:30:21.663Z,53.13
2019-03-13T13:33:26.842Z,53.93
2019-03-13T13:36:32.055Z,54.96
2019-03-13T13:39:38.251Z,55.59
2019-03-13T13:42:43.402Z,55.65
2019-03-13T13:45:55.554Z,55.30
2019-03-13T13:49:00.753Z,54.81
2019-03-13T13:52:05.862Z,55.19
2019-03-13T13:55:10.983Z,55.31
2019-03-13T13:58:16.184Z,56.08
2019-03-13T14:01:21.261Z,56.31
2019-03-13T14:04:26.616Z,55.25
2019-03-13T14:07:31.837Z,54.48
2019-03-13T14:10:37.032Z,53.22
2019-03-13T14:13:42.124Z,54.65
2019-03-13T14:16:47.288Z,54.66
2019-03-13T14:19:52.461Z,54.24
2019-03-13T14:22:57.610Z,56.14
2019-03-13T14:26:02.799Z,58.04
2019-03-13T14:29:08.335Z,58.28
2019-03-13T14:32:13.549Z,57.96
2019-03-13T14:35:18.657Z,59.61
2019-03-13T14:38:23.816Z,58.23
2019-03-13T14:41:28.953Z,59.77
2019-03-13T14:44:34.212Z,59.56
2019-03-13T14:47:39.353Z,61.39
2019-03-13T14:50:45.690Z,61.25
2019-03-13T14:53:50.824Z,61.83
2019-03-13T14:56:55.972Z,62.79
2019-03-13T15:00:01.119Z,63.19
2019-03-13T15:03:07.531Z,63.77
2019-03-13T15:06:13.668Z,65.18
2019-03-13T15:09:18.760Z,65.95
2019-03-13T15:12:24.004Z,67.25
2019-03-13T15:15:29.146Z,69.62
2019-03-13T15:18:34.320Z,71.36
2019-03-13T15:21:39.438Z,70.11
2019-03-13T15:24:44.669Z,72.57
2019-03-13T15:27:49.929Z,74.86
2019-03-13T15:30:55.173Z,73.87
2019-03-13T15:34:00.345Z,75.44
2019-03-13T15:37:05.495Z,76.77
2019-03-13T15:40:13.506Z,75.73
2019-03-13T15:43:18.781Z,74.84
2019-03-13T15:46:23.893Z,74.15
2019-03-13T15:49:29.102Z,76.84
2019-03-13T15:52:34.208Z,77.65
2019-03-13T15:55:39.461Z,76.72
2019-03-13T15:58:44.544Z,80.96
2019-03-13T16:01:49.639Z,80.86
2019-03-13T16:04:54.766Z,81.49
2019-03-13T16:07:59.944Z,81.97
2019-03-13T16:11:05.388Z,81.14
2019-03-13T16:14:10.499Z,81.75
2019-03-13T16:17:15.624Z,81.99
2019-03-13T16:20:20.938Z,82.23
2019-03-13T16:23:27.505Z,82.90
2019-03-13T16:26:32.724Z,82.81
2019-03-13T16:29:37.825Z,83.52
2019-03-13T16:32:44.174Z,84.43
2019-03-13T16:35:49.641Z,83.61
2019-03-13T16:38:54.815Z,84.29
2019-03-13T16:41:59.954Z,83.21
2019-03-13T16:45:05.924Z,84.07
2019-03-13T16:48:11.004Z,84.12
2019-03-13T16:51:16.076Z,85.07
2019-03-13T16:54:21.276Z,85.40
2019-03-13T16:57:26.396Z,86.14
2019-03-13T17:00:31.612Z,85.69
2019-03-13T17:03:36.850Z,86.65
2019-03-13T17:06:41.967Z,87.51
2019-03-13T17:09:48.222Z,86.81
2019-03-13T17:12:53.525Z,87.38
2019-03-13T17:15:58.677Z,86.65
2019-03-13T17:19:03.827Z,87.27
2019-03-13T17:22:08.994Z,87.69
2019-03-13T17:25:15.536Z,88.33
2019-03-13T17:28:20.827Z,87.55
2019-03-13T17:31:25.957Z,87.82
2019-03-13T17:34:31.122Z,88.68
2019-03-13T17:37:36.334Z,89.35
2019-03-13T17:40:41.515Z,89.83
2019-03-13T17:43:46.663Z,89.94
2019-03-13T17:46:51.809Z,89.84
2019-03-13T17:49:56.947Z,90.47
2019-03-13T17:53:02.127Z,91.01
2019-03-13T17:56:07.258Z,92.57
2019-03-13T17:59:12.428Z,90.65
2019-03-13T18:02:17.640Z,91.04
2019-03-13T18:05:22.762Z,91.30
2019-03-13T18:08:27.972Z,91.43
2019-03-13T18:11:33.547Z,90.68
2019-03-13T18:14:38.802Z,89.73
2019-03-13T18:17:43.958Z,89.64
2019-03-13T18:20:49.182Z,89.40
2019-03-13T18:23:55.254Z,88.32
2019-03-13T18:27:00.419Z,88.12
2019-03-13T18:30:07.109Z,85.95
2019-03-13T18:33:12.447Z,87.54
2019-03-13T18:36:17.699Z,86.66
2019-03-13T18:39:22.870Z,87.58
2019-03-13T18:42:28.089Z,86.14
2019-03-13T18:45:33.253Z,85.61
2019-03-13T18:48:39.395Z,85.14
2019-03-13T18:51:44.543Z,85.31
2019-03-13T18:54:49.725Z,85.60
2019-03-13T18:57:55.084Z,84.60
2019-03-13T19:01:00.309Z,84.75
2019-03-13T19:04:05.596Z,85.20
2019-03-13T19:07:10.868Z,84.75
2019-03-13T19:10:16.230Z,86.84
2019-03-13T19:13:21.543Z,85.63
2019-03-13T19:16:26.772Z,86.64
2019-03-13T19:19:31.931Z,85.36
2019-03-13T19:22:37.100Z,86.84
2019-03-13T19:25:42.386Z,85.11
2019-03-13T19:28:47.533Z,86.60
2019-03-13T19:31:52.733Z,86.35
2019-03-13T19:34:58.955Z,86.55
2019-03-13T19:38:05.471Z,87.37
2019-03-13T19:41:10.862Z,86.13
2019-03-13T19:44:15.972Z,86.54
2019-03-13T19:47:21.227Z,86.97
2019-03-13T19:50:28.159Z,86.16
2019-03-13T19:53:33.300Z,88.08
2019-03-13T19:56:38.430Z,87.79
2019-03-13T19:59:43.688Z,86.08
2019-03-13T20:02:59.558Z,86.30
2019-03-13T20:05:55.981Z,86.47
2019-03-13T20:09:01.312Z,86.95
2019-03-13T20:12:08.157Z,86.76
2019-03-13T20:15:15.247Z,87.22
2019-03-13T20:18:20.523Z,86.60
2019-03-13T20:21:25.762Z,84.52
2019-03-13T20:24:31.049Z,86.55
2019-03-13T20:27:36.387Z,88.28
2019-03-13T20:30:41.599Z,88.14
2019-03-13T20:33:46.739Z,87.79
2019-03-13T20:36:51.940Z,87.94
2019-03-13T20:39:57.108Z,87.46
2019-03-13T20:43:02.819Z,86.88
2019-03-13T20:46:08.184Z,87.22
2019-03-13T20:49:13.301Z,87.09
2019-03-13T20:52:18.447Z,85.78
2019-03-13T20:55:23.889Z,86.84
2019-03-13T20:58:29.106Z,87.34
2019-03-13T21:01:34.292Z,87.48
2019-03-13T21:04:40.524Z,86.95
2019-03-13T21:07:45.744Z,86.73
2019-03-13T21:10:50.979Z,87.15
2019-03-13T21:13:56.179Z,85.94
2019-03-13T21:17:01.492Z,87.60
2019-03-13T21:20:07.407Z,87.31
2019-03-13T21:23:12.760Z,88.39
2019-03-13T21:26:17.959Z,87.71
2019-03-13T21:29:23.189Z,87.33
2019-03-13T21:32:28.288Z,87.48
2019-03-13T21:35:33.553Z,87.08
2019-03-13T21:38:38.751Z,85.44
2019-03-13T21:41:43.931Z,85.72
2019-03-13T21:44:49.105Z,86.34
2019-03-13T21:47:54.158Z,86.27
2019-03-13T21:50:59.392Z,86.54
2019-03-13T21:54:04.672Z,86.50
2019-03-13T21:57:09.769Z,86.51
2019-03-13T22:00:20.005Z,86.71
2019-03-13T22:03:29.641Z,85.72
2019-03-13T22:06:32.462Z,85.91
2019-03-13T22:09:37.616Z,86.53
2019-03-13T22:12:42.698Z,87.21
2019-03-13T22:15:47.884Z,85.14
2019-03-13T22:18:53.089Z,86.57
2019-03-13T22:21:58.232Z,87.02
2019-03-13T22:25:03.382Z,86.60
2019-03-13T22:28:08.476Z,87.07
2019-03-13T22:31:14.820Z,86.83
2019-03-13T22:34:20.033Z,86.89
2019-03-13T22:37:25.356Z,86.70
2019-03-13T22:40:30.460Z,87.40
2019-03-13T22:43:35.618Z,88.08
2019-03-13T22:46:40.681Z,88.99
2019-03-13T22:49:45.865Z,88.46
2019-03-13T22:52:51.009Z,87.41
2019-03-13T22:55:56.104Z,88.05
2019-03-13T22:59:01.252Z,88.40
2019-03-13T23:02:08.061Z,88.38
2019-03-13T23:05:13.311Z,89.11
2019-03-13T23:08:18.600Z,88.01
2019-03-13T23:11:23.787Z,87.77
2019-03-13T23:14:28.903Z,87.73
2019-03-13T23:17:34.005Z,87.29
2019-03-13T23:20:39.149Z,87.18
2019-03-13T23:23:44.274Z,86.99
2019-03-13T23:26:49.391Z,87.47
2019-03-13T23:29:54.557Z,87.47
2019-03-13T23:32:59.652Z,87.76
2019-03-13T23:36:04.748Z,88.07
2019-03-13T23:39:09.955Z,87.71
2019-03-13T23:42:16.347Z,88.08
2019-03-13T23:45:21.571Z,87.40
2019-03-13T23:48:26.620Z,86.81
2019-03-13T23:51:31.794Z,86.78
2019-03-13T23:54:36.894Z,88.09
2019-03-13T23:57:42.115Z,87.39
